createdAt,value
2022-08-29T00:00:28.157Z,10.05
2022-08-29T00:02:56.339Z,8.07
2022-08-29T00:05:25.613Z,10.52
2022-08-29T00:07:53.038Z,9.20
2022-08-29T00:10:20.879Z,11.40
2022-08-29T00:12:47.756Z,9.02
2022-08-29T00:15:14.638Z,9.87
2022-08-29T00:17:41.640Z,10.32
2022-08-29T00:20:09.487Z,9.98
2022-08-29T00:22:36.337Z,11.70
2022-08-29T00:25:05.000Z,12.13
2022-08-29T00:27:32.708Z,12.80
2022-08-29T00:29:59.535Z,10.65
2022-08-29T00:32:26.959Z,11.32
2022-08-29T00:34:53.737Z,12.60
2022-08-29T00:37:20.589Z,12.57
2022-08-29T00:39:47.338Z,12.80
2022-08-29T00:42:14.135Z,13.93
2022-08-29T00:44:41.035Z,14.25
2022-08-29T00:47:10.419Z,13.35
2022-08-29T00:49:43.119Z,14.52
2022-08-29T00:52:40.178Z,13.40
2022-08-29T00:55:12.396Z,13.82
2022-08-29T00:57:45.277Z,12.63
2022-08-29T01:00:13.127Z,14.27
2022-08-29T01:02:41.559Z,11.05
2022-08-29T01:05:12.720Z,13.30
2022-08-29T01:07:40.697Z,15.18
2022-08-29T01:10:13.743Z,12.48
2022-08-29T01:12:40.755Z,13.57
2022-08-29T01:15:09.657Z,12.60
2022-08-29T01:17:45.235Z,13.23
2022-08-29T01:20:25.019Z,12.82
2022-08-29T01:22:51.764Z,14.00
2022-08-29T01:25:21.355Z,12.65
2022-08-29T01:27:52.176Z,10.77
2022-08-29T01:30:19.156Z,12.93
2022-08-29T01:32:46.033Z,15.30
2022-08-29T01:35:12.902Z,12.18
2022-08-29T01:37:41.378Z,15.63
2022-08-29T01:40:09.036Z,14.65
2022-08-29T01:42:37.474Z,13.93
2022-08-29T01:45:05.473Z,12.05
2022-08-29T01:47:37.920Z,12.25
2022-08-29T01:50:10.816Z,15.68
2022-08-29T01:52:37.656Z,13.43
2022-08-29T01:55:04.976Z,15.70
2022-08-29T01:57:31.855Z,14.00
2022-08-29T01:59:58.715Z,15.98
2022-08-29T02:02:27.441Z,11.68
2022-08-29T02:04:54.976Z,11.40
2022-08-29T02:07:24.454Z,13.73
2022-08-29T02:09:51.514Z,12.95
2022-08-29T02:12:18.639Z,13.55
2022-08-29T02:14:45.595Z,11.65
2022-08-29T02:17:12.526Z,12.57
2022-08-29T02:19:40.695Z,11.10
2022-08-29T02:22:07.796Z,10.68
2022-08-29T02:24:34.695Z,11.38
2022-08-29T02:27:01.615Z,12.77
2022-08-29T02:29:30.993Z,11.52
2022-08-29T02:32:07.062Z,13.17
2022-08-29T02:34:34.757Z,11.18
2022-08-29T02:37:01.662Z,12.23
2022-08-29T02:39:28.576Z,13.48
2022-08-29T02:41:55.395Z,11.60
2022-08-29T02:44:22.215Z,12.63
2022-08-29T02:46:49.271Z,11.57
2022-08-29T02:49:16.175Z,15.07
2022-08-29T02:51:43.759Z,12.88
2022-08-29T02:54:12.093Z,14.73
2022-08-29T02:56:39.219Z,13.67
2022-08-29T02:59:06.095Z,12.07
2022-08-29T03:01:33.413Z,9.95
2022-08-29T03:04:00.355Z,12.82
2022-08-29T03:06:27.299Z,12.20
2022-08-29T03:08:54.333Z,14.73
2022-08-29T03:11:21.301Z,10.02
2022-08-29T03:13:48.155Z,12.82
2022-08-29T03:16:15.542Z,14.00
2022-08-29T03:18:43.077Z,10.85
2022-08-29T03:21:20.427Z,11.83
2022-08-29T03:23:48.554Z,12.50
2022-08-29T03:26:15.716Z,8.88
2022-08-29T03:28:42.636Z,9.60
2022-08-29T03:31:09.833Z,10.50
2022-08-29T03:33:37.174Z,14.53
2022-08-29T03:36:13.609Z,11.13
2022-08-29T03:38:43.701Z,15.60
2022-08-29T03:41:10.675Z,11.40
2022-08-29T03:43:37.675Z,12.38
2022-08-29T03:46:04.687Z,14.27
2022-08-29T03:48:33.381Z,11.68
2022-08-29T03:51:00.178Z,14.27
2022-08-29T03:53:27.115Z,11.48
2022-08-29T03:55:54.156Z,12.70
2022-08-29T03:58:20.960Z,11.73
2022-08-29T04:00:47.796Z,13.40
2022-08-29T04:03:14.622Z,14.43
2022-08-29T04:05:41.596Z,10.85
2022-08-29T04:08:08.800Z,12.65
2022-08-29T04:10:39.753Z,14.00
2022-08-29T04:13:07.474Z,10.40
2022-08-29T04:15:34.656Z,10.77
2022-08-29T04:18:02.715Z,12.60
2022-08-29T04:20:31.374Z,10.43
2022-08-29T04:22:59.443Z,14.17
2022-08-29T04:25:27.578Z,12.30
2022-08-29T04:27:54.735Z,12.15
2022-08-29T04:30:23.995Z,12.60
2022-08-29T04:32:50.855Z,14.43
2022-08-29T04:35:17.875Z,13.73
2022-08-29T04:37:44.736Z,11.23
2022-08-29T04:40:14.990Z,12.75
2022-08-29T04:42:41.996Z,11.68
2022-08-29T04:45:12.195Z,14.48
2022-08-29T04:47:39.453Z,11.87
2022-08-29T04:50:07.348Z,12.32
2022-08-29T04:52:34.184Z,12.70
2022-08-29T04:55:00.997Z,12.45
2022-08-29T04:57:27.956Z,10.48
2022-08-29T04:59:55.635Z,12.27
2022-08-29T05:02:23.037Z,10.35
2022-08-29T05:04:52.974Z,11.23
2022-08-29T05:07:21.095Z,11.73
2022-08-29T05:09:55.901Z,12.50
2022-08-29T05:12:22.879Z,9.53
2022-08-29T05:14:49.756Z,13.40
2022-08-29T05:17:16.675Z,11.43
2022-08-29T05:19:45.241Z,10.10
2022-08-29T05:22:15.619Z,12.27
2022-08-29T05:24:42.836Z,10.20
2022-08-29T05:27:10.598Z,12.30
2022-08-29T05:29:41.394Z,11.48
2022-08-29T05:32:09.293Z,12.45
2022-08-29T05:34:36.930Z,9.65
2022-08-29T05:37:07.897Z,16.03
2022-08-29T05:39:34.934Z,10.10
2022-08-29T05:42:02.075Z,9.88
2022-08-29T05:44:32.891Z,10.05
2022-08-29T05:47:01.978Z,9.18
2022-08-29T05:49:28.816Z,11.77
2022-08-29T05:51:56.054Z,10.50
2022-08-29T05:54:23.838Z,8.85
2022-08-29T05:56:51.329Z,9.45
2022-08-29T05:59:18.776Z,10.10
2022-08-29T06:01:46.921Z,8.87
2022-08-29T06:04:13.857Z,8.63
2022-08-29T06:06:41.192Z,11.50
2022-08-29T06:09:08.713Z,10.07
2022-08-29T06:11:35.735Z,9.25
2022-08-29T06:14:02.600Z,10.27
2022-08-29T06:16:29.970Z,8.10
2022-08-29T06:18:57.202Z,9.48
2022-08-29T06:21:24.157Z,9.10
2022-08-29T06:23:51.046Z,9.43
2022-08-29T06:26:18.935Z,8.30
2022-08-29T06:28:46.421Z,7.07
2022-08-29T06:31:18.544Z,8.55
2022-08-29T06:33:45.481Z,7.32
2022-08-29T06:36:12.414Z,5.97
2022-08-29T06:38:39.597Z,6.40
2022-08-29T06:41:08.675Z,6.50
2022-08-29T06:43:35.600Z,5.78
2022-08-29T06:46:02.503Z,5.72
2022-08-29T06:48:29.839Z,5.63
2022-08-29T06:50:56.796Z,4.93
2022-08-29T06:53:31.705Z,5.00
2022-08-29T06:56:04.238Z,5.15
2022-08-29T06:58:32.757Z,5.50
2022-08-29T07:00:59.629Z,5.20
2022-08-29T07:03:26.498Z,4.67
2022-08-29T07:05:54.043Z,6.75
2022-08-29T07:08:23.804Z,4.68
2022-08-29T07:10:50.754Z,6.28
2022-08-29T07:13:17.676Z,5.55
2022-08-29T07:15:44.588Z,5.50
2022-08-29T07:18:12.002Z,4.47
2022-08-29T07:20:40.208Z,9.73
2022-08-29T07:23:08.067Z,7.20
2022-08-29T07:25:35.865Z,5.82
2022-08-29T07:28:03.060Z,11.17
2022-08-29T07:30:29.998Z,8.20
2022-08-29T07:32:56.933Z,7.18
2022-08-29T07:35:30.300Z,6.43
2022-08-29T07:38:01.441Z,5.90
2022-08-29T07:40:28.449Z,3.27
2022-08-29T07:42:55.313Z,4.65
2022-08-29T07:45:22.199Z,8.90
2022-08-29T07:47:48.962Z,7.60
2022-08-29T07:50:17.173Z,4.82
2022-08-29T07:52:44.176Z,7.20
2022-08-29T07:55:11.299Z,7.25
2022-08-29T07:57:39.800Z,6.72
2022-08-29T08:00:12.052Z,5.93
2022-08-29T08:02:39.090Z,6.07
2022-08-29T08:05:07.191Z,5.53
2022-08-29T08:07:35.279Z,6.82
2022-08-29T08:10:03.211Z,4.82
2022-08-29T08:12:30.097Z,5.18
2022-08-29T08:14:57.222Z,3.63
2022-08-29T08:17:24.221Z,4.90
2022-08-29T08:19:51.021Z,3.83
2022-08-29T08:22:17.852Z,4.85
2022-08-29T08:24:45.133Z,5.28
2022-08-29T08:27:12.137Z,7.10
2022-08-29T08:29:39.018Z,4.70
2022-08-29T08:32:05.875Z,4.65
2022-08-29T08:34:35.679Z,5.45
2022-08-29T08:37:07.557Z,4.75
2022-08-29T08:39:34.835Z,3.20
2022-08-29T08:42:24.919Z,6.10
2022-08-29T08:45:08.164Z,4.97
2022-08-29T08:47:40.119Z,4.22
2022-08-29T08:50:54.279Z,3.47
2022-08-29T08:53:35.098Z,3.45
2022-08-29T08:56:05.739Z,3.83
2022-08-29T08:58:51.180Z,4.28
2022-08-29T09:01:43.547Z,2.95
2022-08-29T09:04:48.216Z,6.50
2022-08-29T09:07:36.278Z,4.72
2022-08-29T09:10:08.055Z,4.47
2022-08-29T09:12:41.640Z,3.88
2022-08-29T09:15:19.298Z,4.63
2022-08-29T09:17:52.321Z,4.43
2022-08-29T09:20:41.594Z,5.22
2022-08-29T09:23:28.448Z,7.57
2022-08-29T09:25:55.281Z,5.82
2022-08-29T09:28:22.154Z,5.18
2022-08-29T09:31:32.507Z,4.90
2022-08-29T09:34:12.078Z,4.53
2022-08-29T09:36:52.080Z,3.87
2022-08-29T09:39:26.615Z,5.43
2022-08-29T09:41:57.497Z,4.15
2022-08-29T09:44:32.278Z,5.63
2022-08-29T09:47:12.541Z,5.85
2022-08-29T09:49:40.644Z,6.07
2022-08-29T09:52:17.636Z,7.50
2022-08-29T09:54:44.580Z,6.82
2022-08-29T09:57:19.124Z,8.98
2022-08-29T09:59:49.062Z,3.00
2022-08-29T10:02:22.276Z,4.60
2022-08-29T10:05:03.197Z,3.30
2022-08-29T10:07:32.375Z,3.92
2022-08-29T10:10:07.419Z,3.95
2022-08-29T10:12:39.335Z,4.22
2022-08-29T10:15:09.702Z,7.03
2022-08-29T10:18:05.437Z,5.72
2022-08-29T10:21:12.134Z,3.35
2022-08-29T10:23:58.595Z,4.32
2022-08-29T10:26:43.561Z,4.43
2022-08-29T10:29:48.137Z,5.30
2022-08-29T10:32:43.518Z,3.20
2022-08-29T10:35:40.325Z,3.17
2022-08-29T10:38:14.756Z,4.20
2022-08-29T10:41:09.580Z,5.07
2022-08-29T10:43:48.181Z,4.23
2022-08-29T10:46:23.922Z,3.90
2022-08-29T10:48:53.995Z,4.82
2022-08-29T10:51:42.056Z,4.13
2022-08-29T10:54:27.535Z,3.25
2022-08-29T10:56:54.395Z,5.50
2022-08-29T10:59:33.674Z,6.05
2022-08-29T11:02:03.164Z,3.92
2022-08-29T11:04:53.993Z,4.70
2022-08-29T11:07:33.818Z,4.13
2022-08-29T11:10:26.288Z,4.50
2022-08-29T11:13:03.034Z,7.50
2022-08-29T11:15:32.635Z,4.70
2022-08-29T11:18:22.271Z,5.13
2022-08-29T11:20:52.161Z,5.97
2022-08-29T11:23:38.695Z,5.47
2022-08-29T11:26:22.805Z,7.28
2022-08-29T11:29:24.703Z,3.90
2022-08-29T11:32:03.597Z,6.57
2022-08-29T11:34:55.260Z,4.03
2022-08-29T11:37:33.208Z,3.70
2022-08-29T11:40:10.206Z,5.55
2022-08-29T11:42:54.439Z,4.70
2022-08-29T11:45:35.631Z,4.47
2022-08-29T11:48:10.345Z,4.65
2022-08-29T11:50:38.214Z,3.93
2022-08-29T11:53:23.437Z,3.85
2022-08-29T11:56:15.717Z,4.90
2022-08-29T11:58:53.780Z,3.60
2022-08-29T12:01:39.204Z,3.97
2022-08-29T12:04:07.117Z,4.90
2022-08-29T12:06:39.924Z,5.05
2022-08-29T12:09:13.909Z,7.95
2022-08-29T12:11:59.584Z,4.20
2022-08-29T12:14:38.389Z,4.07
2022-08-29T12:17:07.502Z,3.73
2022-08-29T12:19:54.014Z,4.68
2022-08-29T12:22:57.977Z,4.57
2022-08-29T12:25:27.577Z,4.15
2022-08-29T12:28:02.976Z,6.03
2022-08-29T12:30:33.517Z,4.73
2022-08-29T12:33:36.536Z,4.47
2022-08-29T12:36:14.299Z,4.53
2022-08-29T12:38:58.742Z,4.15
2022-08-29T12:41:59.275Z,4.07
2022-08-29T12:44:40.862Z,5.70
2022-08-29T12:47:09.865Z,4.93
2022-08-29T12:49:51.653Z,3.97
2022-08-29T12:52:31.757Z,4.63
2022-08-29T12:54:59.744Z,5.95
2022-08-29T12:57:32.265Z,7.03
2022-08-29T12:59:59.222Z,7.60
2022-08-29T13:02:36.384Z,14.50
2022-08-29T13:05:05.561Z,6.18
2022-08-29T13:07:32.491Z,5.50
2022-08-29T13:10:00.565Z,6.17
2022-08-29T13:12:36.756Z,3.90
2022-08-29T13:15:06.301Z,4.40
2022-08-29T13:17:40.179Z,7.65
2022-08-29T13:20:45.896Z,6.07
2022-08-29T13:23:12.706Z,5.60
2022-08-29T13:25:59.604Z,4.35
2022-08-29T13:28:57.941Z,6.57
2022-08-29T13:31:31.348Z,4.03
2022-08-29T13:33:58.297Z,5.03
2022-08-29T13:36:28.143Z,3.83
2022-08-29T13:39:38.115Z,6.38
2022-08-29T13:42:14.726Z,6.07
2022-08-29T13:44:53.210Z,6.20
2022-08-29T13:47:25.608Z,5.97
2022-08-29T13:49:56.439Z,5.33
2022-08-29T13:52:24.030Z,4.43
2022-08-29T13:55:04.208Z,5.72
2022-08-29T13:57:31.681Z,3.20
2022-08-29T13:59:58.753Z,5.47
2022-08-29T14:02:26.222Z,4.17
2022-08-29T14:04:53.329Z,3.78
2022-08-29T14:07:26.039Z,5.80
2022-08-29T14:09:53.090Z,5.15
2022-08-29T14:12:20.038Z,3.25
2022-08-29T14:15:04.079Z,4.20
2022-08-29T14:17:35.185Z,3.88
2022-08-29T14:20:02.022Z,4.10
2022-08-29T14:22:28.926Z,4.90
2022-08-29T14:24:55.762Z,2.90
2022-08-29T14:27:22.724Z,3.40
2022-08-29T14:29:49.622Z,4.65
2022-08-29T14:32:16.497Z,4.75
2022-08-29T14:34:45.483Z,4.15
2022-08-29T14:37:20.111Z,4.85
2022-08-29T14:39:50.045Z,4.53
2022-08-29T14:42:17.815Z,3.58
2022-08-29T14:44:44.701Z,4.05
2022-08-29T14:47:11.598Z,4.28
2022-08-29T14:49:38.407Z,3.85
2022-08-29T14:52:05.718Z,4.27
2022-08-29T14:54:32.673Z,3.88
2022-08-29T14:56:59.841Z,3.83
2022-08-29T14:59:26.760Z,4.43
2022-08-29T15:01:55.045Z,4.50
2022-08-29T15:04:35.085Z,6.33
2022-08-29T15:07:06.156Z,3.63
2022-08-29T15:09:33.111Z,5.15
2022-08-29T15:11:59.927Z,5.28
2022-08-29T15:14:26.738Z,5.15
2022-08-29T15:16:53.641Z,4.83
2022-08-29T15:22:08.536Z,3.90
2022-08-29T15:24:35.600Z,3.83
2022-08-29T15:27:02.543Z,3.30
2022-08-29T15:29:29.499Z,5.10
2022-08-29T15:31:57.471Z,3.53
2022-08-29T15:34:28.026Z,3.33
2022-08-29T15:36:55.099Z,4.70
2022-08-29T15:39:22.195Z,3.92
2022-08-29T15:41:49.120Z,5.10
2022-08-29T15:44:16.019Z,3.95
2022-08-29T15:46:50.190Z,4.88
2022-08-29T15:49:17.537Z,5.20
2022-08-29T15:51:44.458Z,5.65
2022-08-29T15:54:12.454Z,3.80
2022-08-29T15:56:39.276Z,4.78
2022-08-29T15:59:08.043Z,5.68
2022-08-29T16:01:42.783Z,6.13
2022-08-29T16:04:10.184Z,5.50
2022-08-29T16:06:37.357Z,8.90
2022-08-29T16:09:14.946Z,6.07
2022-08-29T16:11:46.596Z,5.78
2022-08-29T16:14:58.017Z,6.22
2022-08-29T16:17:00.438Z,4.97
2022-08-29T16:19:27.318Z,6.50
2022-08-29T16:21:59.782Z,4.68
2022-08-29T16:24:27.934Z,6.28
2022-08-29T16:26:55.458Z,5.70
2022-08-29T16:29:26.620Z,4.47
2022-08-29T16:31:56.052Z,4.70
2022-08-29T16:34:25.645Z,6.03
2022-08-29T16:36:58.401Z,4.13
2022-08-29T16:39:25.417Z,4.65
2022-08-29T16:41:52.375Z,5.50
2022-08-29T16:44:20.485Z,4.40
2022-08-29T16:46:47.359Z,3.58
2022-08-29T16:49:14.245Z,4.78
2022-08-29T16:51:41.148Z,5.25
2022-08-29T16:54:08.199Z,4.38
2022-08-29T16:56:35.123Z,3.17
2022-08-29T16:59:03.065Z,4.80
2022-08-29T17:01:38.069Z,4.15
2022-08-29T17:04:06.744Z,5.45
2022-08-29T17:06:33.646Z,5.70
2022-08-29T17:09:03.308Z,3.73
2022-08-29T17:11:32.178Z,6.50
2022-08-29T17:13:58.881Z,4.88
2022-08-29T17:16:25.816Z,3.95
2022-08-29T17:18:52.651Z,3.67
2022-08-29T17:21:19.507Z,3.83
2022-08-29T17:23:46.397Z,4.65
2022-08-29T17:26:14.062Z,3.65
2022-08-29T17:28:40.988Z,4.45
2022-08-29T17:31:07.943Z,3.90
2022-08-29T17:33:34.930Z,3.43
2022-08-29T17:36:03.036Z,4.97
2022-08-29T17:38:31.059Z,7.57
2022-08-29T17:41:02.325Z,6.53
2022-08-29T17:43:32.902Z,4.97
2022-08-29T17:45:59.754Z,6.13
2022-08-29T17:48:26.593Z,7.30
2022-08-29T17:50:54.025Z,5.32
2022-08-29T17:53:21.208Z,6.88
2022-08-29T17:55:48.484Z,5.00
2022-08-29T17:58:15.422Z,5.23
2022-08-29T18:00:42.325Z,5.72
2022-08-29T18:03:09.441Z,5.00
2022-08-29T18:05:36.264Z,5.93
2022-08-29T18:08:03.274Z,4.50
2022-08-29T18:10:30.364Z,5.57
2022-08-29T18:12:57.354Z,6.25
2022-08-29T18:15:24.282Z,6.10
2022-08-29T18:17:52.682Z,4.90
2022-08-29T18:20:21.716Z,5.80
2022-08-29T18:22:49.826Z,5.50
2022-08-29T18:25:17.182Z,5.38
2022-08-29T18:27:50.391Z,6.05
2022-08-29T18:30:17.356Z,7.75
2022-08-29T18:32:44.222Z,7.28
2022-08-29T18:35:11.208Z,5.97
2022-08-29T18:37:38.055Z,5.70
2022-08-29T18:40:05.543Z,5.22
2022-08-29T18:42:40.370Z,4.60
2022-08-29T18:45:08.396Z,6.22
2022-08-29T18:47:35.234Z,7.03
2022-08-29T18:50:20.478Z,6.05
2022-08-29T18:52:52.441Z,8.13
2022-08-29T18:55:19.555Z,9.68
2022-08-29T18:57:48.389Z,7.45
2022-08-29T19:00:16.235Z,5.13
2022-08-29T19:02:43.261Z,8.25
2022-08-29T19:05:10.237Z,7.10
2022-08-29T19:07:37.133Z,5.65
2022-08-29T19:10:04.803Z,8.40
2022-08-29T19:12:31.573Z,5.83
2022-08-29T19:14:58.363Z,8.60
2022-08-29T19:17:25.173Z,4.82
2022-08-29T19:20:10.666Z,6.65
2022-08-29T19:22:39.375Z,7.50
2022-08-29T19:25:08.792Z,7.63
2022-08-29T19:27:44.375Z,7.80
2022-08-29T19:30:13.537Z,7.50
2022-08-29T19:32:40.458Z,5.40
2022-08-29T19:35:07.832Z,6.45
2022-08-29T19:37:34.671Z,5.33
2022-08-29T19:40:02.150Z,5.22
2022-08-29T19:42:28.950Z,4.80
2022-08-29T19:44:56.458Z,5.05
2022-08-29T19:47:23.970Z,7.85
2022-08-29T19:49:50.961Z,4.93
2022-08-29T19:52:17.997Z,5.07
2022-08-29T19:54:44.773Z,5.82
2022-08-29T19:57:14.916Z,8.60
2022-08-29T19:59:42.219Z,7.45
2022-08-29T20:02:10.768Z,4.33
2022-08-29T20:04:38.136Z,8.02
2022-08-29T20:07:05.491Z,4.07
2022-08-29T20:09:32.416Z,5.38
2022-08-29T20:11:59.426Z,6.43
2022-08-29T20:14:26.286Z,7.10
2022-08-29T20:16:53.230Z,4.57
2022-08-29T20:19:21.493Z,8.40
2022-08-29T20:21:49.934Z,7.63
2022-08-29T20:24:17.066Z,6.43
2022-08-29T20:26:44.759Z,7.50
2022-08-29T20:29:11.831Z,7.15
2022-08-29T20:31:38.893Z,8.68
2022-08-29T20:34:05.815Z,6.93
2022-08-29T20:36:50.976Z,6.75
2022-08-29T20:39:18.585Z,8.70
2022-08-29T20:41:55.325Z,4.80
2022-08-29T20:44:23.327Z,6.65
2022-08-29T20:46:50.189Z,5.93
2022-08-29T20:49:19.894Z,6.82
2022-08-29T20:51:46.958Z,5.20
2022-08-29T20:54:14.464Z,4.75
2022-08-29T20:56:41.372Z,5.70
2022-08-29T20:59:08.210Z,4.90
2022-08-29T21:01:36.164Z,5.50
2022-08-29T21:04:23.104Z,6.27
2022-08-29T21:06:55.012Z,5.07
2022-08-29T21:09:25.111Z,6.70
2022-08-29T21:11:52.144Z,8.32
2022-08-29T21:14:19.179Z,6.68
2022-08-29T21:16:46.266Z,5.43
2022-08-29T21:19:13.512Z,7.50
2022-08-29T21:21:41.108Z,7.90
2022-08-29T21:24:08.140Z,4.43
2022-08-29T21:26:35.064Z,8.57
2022-08-29T21:29:01.868Z,6.50
2022-08-29T21:31:28.833Z,6.20
2022-08-29T21:33:55.849Z,4.65
2022-08-29T21:36:25.790Z,3.90
2022-08-29T21:38:54.297Z,5.63
2022-08-29T21:41:21.483Z,6.37
2022-08-29T21:43:48.324Z,6.75
2022-08-29T21:46:16.129Z,5.78
2022-08-29T21:48:43.099Z,4.72
2022-08-29T21:51:10.229Z,4.28
2022-08-29T21:53:37.765Z,5.23
2022-08-29T21:56:08.634Z,7.97
2022-08-29T21:58:35.628Z,5.47
2022-08-29T22:01:02.458Z,8.32
2022-08-29T22:03:29.368Z,4.03
2022-08-29T22:05:56.300Z,4.43
2022-08-29T22:08:23.200Z,4.30
2022-08-29T22:10:50.026Z,3.85
2022-08-29T22:13:17.264Z,4.78
2022-08-29T22:16:02.644Z,6.82
2022-08-29T22:18:29.558Z,3.27
2022-08-29T22:21:00.407Z,4.10
2022-08-29T22:23:27.344Z,5.90
2022-08-29T22:25:54.164Z,4.63
2022-08-29T22:28:21.300Z,5.28
2022-08-29T22:30:48.849Z,7.77
2022-08-29T22:33:16.455Z,5.53
2022-08-29T22:35:43.765Z,6.38
2022-08-29T22:38:10.742Z,6.65
2022-08-29T22:40:37.649Z,4.43
2022-08-29T22:43:04.597Z,3.70
2022-08-29T22:45:32.359Z,5.57
2022-08-29T22:47:59.209Z,3.92
2022-08-29T22:50:26.176Z,4.50
2022-08-29T22:52:56.520Z,3.72
2022-08-29T22:57:49.585Z,4.05
2022-08-29T23:00:19.411Z,4.30
2022-08-29T23:02:46.324Z,3.50
2022-08-29T23:05:13.375Z,3.45
2022-08-29T23:07:40.201Z,3.70
2022-08-29T23:10:08.061Z,4.97
2022-08-29T23:12:38.644Z,2.42
2022-08-29T23:15:06.878Z,3.67
2022-08-29T23:17:33.816Z,6.00
2022-08-29T23:20:00.659Z,2.90
2022-08-29T23:22:27.539Z,2.58
2022-08-29T23:24:58.741Z,6.00
2022-08-29T23:27:29.779Z,3.90
2022-08-29T23:29:57.080Z,3.38
2022-08-29T23:32:23.941Z,3.53
2022-08-29T23:34:50.776Z,3.78
2022-08-29T23:37:17.579Z,3.90
2022-08-29T23:39:44.421Z,2.23
2022-08-29T23:42:11.300Z,2.75
2022-08-29T23:44:38.115Z,3.28
2022-08-29T23:47:05.215Z,3.38
2022-08-29T23:49:35.322Z,2.15
2022-08-29T23:52:02.197Z,2.90
2022-08-29T23:54:31.389Z,3.38
2022-08-29T23:56:58.278Z,2.88
2022-08-29T23:59:43.456Z,3.58
